createdAt,value
2022-12-17T00:01:05.070Z,-4.60
2022-12-17T00:03:51.495Z,-4.70
2022-12-17T00:06:37.772Z,-4.70
2022-12-17T00:09:23.305Z,-4.70
2022-12-17T00:12:09.466Z,-4.70
2022-12-17T00:14:55.091Z,-4.80
2022-12-17T00:17:41.471Z,-4.80
2022-12-17T00:20:27.462Z,-4.90
2022-12-17T00:23:19.743Z,-4.90
2022-12-17T00:26:12.048Z,-4.90
2022-12-17T00:28:57.792Z,-5.00
2022-12-17T00:31:45.505Z,-5.00
2022-12-17T00:34:31.030Z,-5.00
2022-12-17T00:37:16.733Z,-5.00
2022-12-17T00:40:02.386Z,-5.00
2022-12-17T00:42:47.821Z,-5.00
2022-12-17T00:45:33.300Z,-5.10
2022-12-17T00:48:18.963Z,-5.10
2022-12-17T00:51:04.636Z,-5.20
2022-12-17T00:53:50.116Z,-5.20
2022-12-17T00:56:35.484Z,-5.30
2022-12-17T00:59:21.028Z,-5.30
2022-12-17T01:02:06.770Z,-5.30
2022-12-17T01:04:52.394Z,-5.30
2022-12-17T01:07:38.517Z,-5.20
2022-12-17T01:10:24.315Z,-5.30
2022-12-17T01:13:10.188Z,-5.30
2022-12-17T01:15:56.762Z,-5.30
2022-12-17T01:18:42.347Z,-5.40
2022-12-17T01:21:27.928Z,-5.40
2022-12-17T01:24:13.456Z,-5.40
2022-12-17T01:26:59.213Z,-5.40
2022-12-17T01:29:44.874Z,-5.40
2022-12-17T01:32:30.240Z,-5.40
2022-12-17T01:35:15.915Z,-5.40
2022-12-17T01:38:01.531Z,-5.40
2022-12-17T01:40:46.947Z,-5.40
2022-12-17T01:43:33.189Z,-5.40
2022-12-17T01:46:18.852Z,-5.40
2022-12-17T01:49:06.321Z,-5.40
2022-12-17T01:52:11.176Z,-5.40
2022-12-17T01:54:57.044Z,-5.40
2022-12-17T01:57:43.689Z,-5.40
2022-12-17T02:00:31.952Z,-5.40
2022-12-17T02:03:18.376Z,-5.40
2022-12-17T02:06:09.847Z,-5.40
2022-12-17T02:08:55.391Z,-5.40
2022-12-17T02:11:47.129Z,-5.40
2022-12-17T02:14:56.278Z,-5.40
2022-12-17T02:17:44.418Z,-5.40
2022-12-17T02:20:45.479Z,-5.40
2022-12-17T02:23:37.264Z,-5.40
2022-12-17T02:26:27.346Z,-5.40
2022-12-17T02:29:14.979Z,-5.40
2022-12-17T02:32:02.518Z,-5.40
2022-12-17T02:34:47.717Z,-5.40
2022-12-17T02:37:47.408Z,-5.40
2022-12-17T02:40:32.952Z,-5.40
2022-12-17T02:43:20.547Z,-5.40
2022-12-17T02:46:06.526Z,-5.40
2022-12-17T02:48:53.042Z,-5.50
2022-12-17T02:51:38.757Z,-5.50
2022-12-17T02:54:24.699Z,-5.50
2022-12-17T02:57:10.318Z,-5.50
2022-12-17T02:59:55.998Z,-5.50
2022-12-17T03:02:46.272Z,-5.50
2022-12-17T03:05:47.272Z,-5.50
2022-12-17T03:08:32.674Z,-5.60
2022-12-17T03:11:18.136Z,-5.60
2022-12-17T03:14:03.703Z,-5.60
2022-12-17T03:16:49.747Z,-5.70
2022-12-17T03:19:35.430Z,-5.60
2022-12-17T03:22:21.151Z,-5.80
2022-12-17T03:25:06.778Z,-5.80
2022-12-17T03:27:52.471Z,-5.80
2022-12-17T03:30:39.097Z,-5.80
2022-12-17T03:33:26.707Z,-5.90
2022-12-17T03:36:12.783Z,-5.90
2022-12-17T03:38:58.559Z,-6.00
2022-12-17T03:41:44.246Z,-6.00
2022-12-17T03:44:29.524Z,-6.10
2022-12-17T03:47:15.147Z,-6.30
2022-12-17T03:50:00.852Z,-6.20
2022-12-17T03:52:46.285Z,-6.20
2022-12-17T03:55:31.687Z,-6.20
2022-12-17T03:58:17.401Z,-6.30
2022-12-17T04:01:03.013Z,-6.30
2022-12-17T04:03:48.851Z,-6.30
2022-12-17T04:06:34.602Z,-6.30
2022-12-17T04:09:19.959Z,-6.40
2022-12-17T04:12:05.701Z,-6.40
2022-12-17T04:14:51.093Z,-6.70
2022-12-17T04:17:36.508Z,-6.90
2022-12-17T04:20:22.929Z,-7.00
2022-12-17T04:23:08.503Z,-7.00
2022-12-17T04:25:54.249Z,-7.10
2022-12-17T04:28:39.519Z,-7.10
2022-12-17T04:31:25.447Z,-7.00
2022-12-17T04:34:11.314Z,-7.00
2022-12-17T04:36:57.729Z,-7.00
2022-12-17T04:39:43.121Z,-7.10
2022-12-17T04:42:28.659Z,-7.20
2022-12-17T04:45:14.338Z,-7.20
2022-12-17T04:48:00.052Z,-7.20
2022-12-17T04:50:45.170Z,-7.30
2022-12-17T04:53:30.625Z,-7.30
2022-12-17T04:56:16.225Z,-7.40
2022-12-17T04:59:01.982Z,-7.30
2022-12-17T05:01:48.045Z,-7.30
2022-12-17T05:04:33.762Z,-7.40
2022-12-17T05:07:19.492Z,-7.40
2022-12-17T05:10:05.040Z,-7.40
2022-12-17T05:12:50.695Z,-7.50
2022-12-17T05:15:36.213Z,-7.50
2022-12-17T05:18:26.562Z,-7.50
2022-12-17T05:21:12.175Z,-7.40
2022-12-17T05:23:58.066Z,-7.40
2022-12-17T05:26:45.605Z,-7.40
2022-12-17T05:29:31.519Z,-7.30
2022-12-17T05:32:17.909Z,-7.30
2022-12-17T05:35:03.338Z,-7.20
2022-12-17T05:37:48.765Z,-7.30
2022-12-17T05:40:34.130Z,-7.30
2022-12-17T05:43:23.720Z,-7.30
2022-12-17T05:46:09.260Z,-7.40
2022-12-17T05:48:55.449Z,-7.40
2022-12-17T05:51:41.271Z,-7.40
2022-12-17T05:54:26.718Z,-7.50
2022-12-17T05:57:12.942Z,-7.50
2022-12-17T05:59:58.657Z,-7.50
2022-12-17T06:02:44.211Z,-7.50
2022-12-17T06:05:29.947Z,-7.50
2022-12-17T06:08:25.756Z,-7.50
2022-12-17T06:11:11.354Z,-7.50
2022-12-17T06:13:57.100Z,-7.50
2022-12-17T06:16:43.002Z,-7.40
2022-12-17T06:19:28.220Z,-7.40
2022-12-17T06:22:33.860Z,-7.40
2022-12-17T06:25:19.581Z,-7.40
2022-12-17T06:28:05.155Z,-7.30
2022-12-17T06:30:50.678Z,-7.20
2022-12-17T06:33:36.770Z,-7.20
2022-12-17T06:36:23.114Z,-7.20
2022-12-17T06:39:09.342Z,-7.30
2022-12-17T06:42:00.505Z,-7.30
2022-12-17T06:44:49.579Z,-7.30
2022-12-17T06:47:35.136Z,-7.30
2022-12-17T06:50:20.971Z,-7.30
2022-12-17T06:53:06.526Z,-7.20
2022-12-17T06:55:52.389Z,-7.30
2022-12-17T06:58:37.658Z,-7.20
2022-12-17T07:01:23.433Z,-7.20
2022-12-17T07:04:08.963Z,-7.20
2022-12-17T07:06:55.587Z,-7.20
2022-12-17T07:09:41.096Z,-7.20
2022-12-17T07:12:26.624Z,-7.20
2022-12-17T07:15:12.453Z,-7.20
2022-12-17T07:18:00.830Z,-7.20
2022-12-17T07:20:46.548Z,-7.20
2022-12-17T07:23:31.937Z,-7.20
2022-12-17T07:26:17.844Z,-7.20
2022-12-17T07:29:03.488Z,-7.20
2022-12-17T07:31:49.046Z,-7.20
2022-12-17T07:34:34.428Z,-7.20
2022-12-17T07:37:20.745Z,-7.20
2022-12-17T07:40:06.636Z,-7.20
2022-12-17T07:42:52.236Z,-7.30
2022-12-17T07:45:37.890Z,-7.30
2022-12-17T07:48:23.808Z,-7.30
2022-12-17T07:51:09.420Z,-7.40
2022-12-17T07:53:55.281Z,-7.30
2022-12-17T07:56:40.663Z,-7.30
2022-12-17T07:59:26.602Z,-7.30
2022-12-17T08:02:13.296Z,-7.20
2022-12-17T08:04:58.805Z,-7.20
2022-12-17T08:07:44.758Z,-7.20
2022-12-17T08:10:31.774Z,-7.10
2022-12-17T08:13:18.532Z,-7.20
2022-12-17T08:16:05.028Z,-7.20
2022-12-17T08:18:50.530Z,-7.20
2022-12-17T08:21:36.243Z,-7.20
2022-12-17T08:24:21.936Z,-7.20
2022-12-17T08:27:07.606Z,-7.20
2022-12-17T08:29:53.166Z,-7.20
2022-12-17T08:32:38.693Z,-7.30
2022-12-17T08:35:24.749Z,-7.20
2022-12-17T08:38:10.596Z,-7.20
2022-12-17T08:40:56.240Z,-7.10
2022-12-17T08:43:42.302Z,-7.10
2022-12-17T08:46:27.713Z,-7.10
2022-12-17T08:49:13.326Z,-7.00
2022-12-17T08:51:59.168Z,-7.00
2022-12-17T08:54:44.879Z,-7.10
2022-12-17T08:57:32.506Z,-7.10
2022-12-17T09:00:18.744Z,-7.10
2022-12-17T09:03:04.923Z,-7.10
2022-12-17T09:05:50.547Z,-7.10
2022-12-17T09:08:35.974Z,-7.00
2022-12-17T09:11:21.667Z,-7.00
2022-12-17T09:16:00.193Z,-7.00
2022-12-17T09:18:46.098Z,-7.00
2022-12-17T09:21:31.975Z,-7.00
2022-12-17T09:24:17.587Z,-6.90
2022-12-17T09:27:03.241Z,-6.90
2022-12-17T09:32:24.524Z,-6.70
2022-12-17T09:35:09.951Z,-6.70
2022-12-17T09:37:55.449Z,-6.80
2022-12-17T09:40:43.337Z,-6.70
2022-12-17T09:43:41.593Z,-6.70
2022-12-17T09:46:49.145Z,-6.60
2022-12-17T09:49:44.728Z,-6.50
2022-12-17T09:52:40.195Z,-6.40
2022-12-17T09:55:48.928Z,-6.30
2022-12-17T09:58:43.651Z,-6.30
2022-12-17T10:01:38.180Z,-6.30
2022-12-17T10:04:25.967Z,-6.40
2022-12-17T10:07:12.157Z,-6.30
2022-12-17T10:09:57.767Z,-6.40
2022-12-17T10:12:43.748Z,-6.30
2022-12-17T10:15:33.782Z,-6.20
2022-12-17T10:18:29.247Z,-6.10
2022-12-17T10:21:25.309Z,-6.10
2022-12-17T10:24:23.029Z,-6.10
2022-12-17T10:27:08.550Z,-6.00
2022-12-17T10:29:54.559Z,-6.00
2022-12-17T10:32:44.556Z,-6.00
2022-12-17T10:35:38.908Z,-5.90
2022-12-17T10:42:10.827Z,-6.00
2022-12-17T10:44:57.258Z,-6.10
2022-12-17T10:47:47.564Z,-6.10
2022-12-17T10:50:37.692Z,-6.10
2022-12-17T10:53:37.647Z,-6.10
2022-12-17T10:56:24.436Z,-6.10
2022-12-17T10:59:12.441Z,-6.20
2022-12-17T11:01:58.974Z,-6.10
2022-12-17T11:04:55.940Z,-5.90
2022-12-17T11:07:52.935Z,-5.80
2022-12-17T11:10:44.136Z,-5.80
2022-12-17T11:13:52.361Z,-5.70
2022-12-17T11:16:52.242Z,-5.70
2022-12-17T11:19:50.610Z,-5.70
2022-12-17T11:23:10.823Z,-5.70
2022-12-17T11:26:20.816Z,-5.50
2022-12-17T11:29:06.496Z,-5.30
2022-12-17T11:32:10.348Z,-5.10
2022-12-17T11:35:11.440Z,-5.10
2022-12-17T11:38:17.926Z,-4.90
2022-12-17T11:41:12.085Z,-4.60
2022-12-17T11:44:18.737Z,-4.40
2022-12-17T11:47:17.609Z,-4.50
2022-12-17T11:50:31.595Z,-4.50
2022-12-17T11:53:35.302Z,-4.30
2022-12-17T11:56:34.887Z,-4.40
2022-12-17T12:00:06.747Z,-4.30
2022-12-17T12:03:08.092Z,-4.00
2022-12-17T12:06:14.363Z,-4.00
2022-12-17T12:09:20.500Z,-3.80
2022-12-17T12:12:08.985Z,-3.90
2022-12-17T12:15:03.574Z,-3.90
2022-12-17T12:18:01.030Z,-4.00
2022-12-17T12:27:26.496Z,-4.10
2022-12-17T12:30:40.771Z,-4.10
2022-12-17T12:33:41.233Z,-3.80
2022-12-17T13:04:08.068Z,-3.10
2022-12-17T13:06:55.253Z,-3.00
2022-12-17T13:09:32.493Z,-3.00
2022-12-17T13:12:04.883Z,-2.90
2022-12-17T13:14:59.900Z,-2.90
2022-12-17T13:17:29.464Z,-2.90
2022-12-17T13:19:56.456Z,-2.90
2022-12-17T13:22:24.472Z,-2.80
2022-12-17T13:24:54.478Z,-2.80
2022-12-17T13:27:32.148Z,-2.90
2022-12-17T13:30:14.652Z,-2.90
2022-12-17T13:32:55.613Z,-2.90
2022-12-17T13:35:50.021Z,-2.80
2022-12-17T13:38:44.784Z,-2.80
2022-12-17T13:41:35.120Z,-2.80
2022-12-17T13:44:36.483Z,-2.80
2022-12-17T13:47:03.624Z,-2.70
2022-12-17T13:49:31.950Z,-2.60
2022-12-17T13:52:18.090Z,-2.60
2022-12-17T13:54:45.212Z,-2.70
2022-12-17T13:57:19.336Z,-2.70
2022-12-17T13:59:50.326Z,-2.60
2022-12-17T14:02:27.383Z,-2.60
2022-12-17T14:04:56.859Z,-2.60
2022-12-17T14:07:27.679Z,-2.60
2022-12-17T14:09:55.905Z,-2.70
2022-12-17T14:12:26.719Z,-2.60
2022-12-17T14:15:00.395Z,-2.70
2022-12-17T14:17:35.917Z,-2.80
2022-12-17T14:20:04.698Z,-2.90
2022-12-17T14:22:37.450Z,-3.00
2022-12-17T14:25:07.253Z,-3.20
2022-12-17T14:27:36.774Z,-3.20
2022-12-17T14:30:21.885Z,-3.00
2022-12-17T14:32:49.497Z,-3.00
2022-12-17T14:35:34.026Z,-3.10
2022-12-17T14:38:01.203Z,-3.20
2022-12-17T14:40:28.351Z,-3.30
2022-12-17T14:43:00.277Z,-3.20
2022-12-17T14:45:28.953Z,-3.30
2022-12-17T14:48:02.305Z,-3.40
2022-12-17T14:50:37.027Z,-3.40
2022-12-17T14:53:24.432Z,-3.60
2022-12-17T14:55:59.159Z,-3.60
2022-12-17T14:58:27.803Z,-3.70
2022-12-17T15:01:08.341Z,-3.70
2022-12-17T15:03:41.217Z,-3.70
2022-12-17T15:06:12.193Z,-3.80
2022-12-17T15:08:45.295Z,-3.90
2022-12-17T15:11:19.155Z,-4.00
2022-12-17T15:13:54.614Z,-4.00
2022-12-17T15:16:24.594Z,-4.10
2022-12-17T15:19:01.050Z,-4.20
2022-12-17T15:21:28.119Z,-4.20
2022-12-17T15:24:02.857Z,-4.20
2022-12-17T15:26:32.207Z,-4.30
2022-12-17T15:29:00.916Z,-4.20
2022-12-17T15:31:33.523Z,-4.30
2022-12-17T15:34:05.337Z,-4.40
2022-12-17T15:36:36.522Z,-4.40
2022-12-17T15:39:06.470Z,-4.40
2022-12-17T15:41:52.265Z,-4.50
2022-12-17T15:44:24.259Z,-4.50
2022-12-17T15:47:00.523Z,-4.60
2022-12-17T15:49:27.721Z,-4.60
2022-12-17T15:51:55.814Z,-4.60
2022-12-17T15:54:29.117Z,-4.60
2022-12-17T15:56:59.872Z,-4.60
2022-12-17T15:59:27.307Z,-4.60
2022-12-17T16:01:56.448Z,-4.60
2022-12-17T16:04:25.450Z,-4.70
2022-12-17T16:06:52.704Z,-4.70
2022-12-17T16:09:20.036Z,-4.70
2022-12-17T16:11:49.790Z,-4.70
2022-12-17T16:14:16.909Z,-4.70
2022-12-17T16:16:44.026Z,-4.70
2022-12-17T16:19:11.120Z,-4.70
2022-12-17T16:21:47.624Z,-4.70
2022-12-17T16:24:15.370Z,-4.70
2022-12-17T16:26:42.449Z,-4.70
2022-12-17T16:29:12.039Z,-4.70
2022-12-17T16:31:39.299Z,-4.70
2022-12-17T16:34:12.876Z,-4.70
2022-12-17T16:36:40.030Z,-4.70
2022-12-17T16:39:07.518Z,-4.70
2022-12-17T16:41:34.848Z,-4.70
2022-12-17T16:44:01.980Z,-4.60
2022-12-17T16:46:33.634Z,-4.60
2022-12-17T16:49:09.626Z,-4.60
2022-12-17T16:51:37.007Z,-4.70
2022-12-17T16:54:09.423Z,-4.60
2022-12-17T16:56:40.299Z,-4.70
2022-12-17T16:59:08.892Z,-4.70
2022-12-17T17:01:36.992Z,-4.70
2022-12-17T17:04:08.389Z,-4.70
2022-12-17T17:06:47.011Z,-4.70
2022-12-17T17:09:14.961Z,-4.70
2022-12-17T17:11:44.806Z,-4.80
2022-12-17T17:14:15.452Z,-4.80
2022-12-17T17:16:42.787Z,-4.70
2022-12-17T17:19:09.847Z,-4.70
2022-12-17T17:21:38.985Z,-4.70
2022-12-17T17:24:18.467Z,-4.80
2022-12-17T17:26:48.360Z,-4.80
2022-12-17T17:29:15.485Z,-4.80
2022-12-17T17:34:29.631Z,-4.80
2022-12-17T17:36:56.660Z,-4.80
2022-12-17T17:39:23.736Z,-4.80
2022-12-17T17:41:50.778Z,-4.90
2022-12-17T17:44:17.932Z,-4.80
2022-12-17T17:46:45.511Z,-4.80
2022-12-17T17:49:12.788Z,-4.90
2022-12-17T17:54:29.811Z,-4.80
2022-12-17T17:56:56.885Z,-4.80
2022-12-17T17:59:29.363Z,-4.80
2022-12-17T18:01:59.237Z,-4.80
2022-12-17T18:04:26.467Z,-4.80
2022-12-17T18:07:23.648Z,-4.80
2022-12-17T18:09:41.021Z,-4.70
2022-12-17T18:12:26.479Z,-4.80
2022-12-17T18:17:40.688Z,-4.80
2022-12-17T18:20:09.861Z,-4.80
2022-12-17T18:22:38.099Z,-4.80
2022-12-17T18:25:05.833Z,-4.80
2022-12-17T18:27:33.924Z,-4.90
2022-12-17T18:30:00.942Z,-5.00
2022-12-17T18:32:27.974Z,-4.90
2022-12-17T18:34:55.073Z,-4.90
2022-12-17T18:37:22.141Z,-4.90
2022-12-17T18:39:49.387Z,-4.90
2022-12-17T18:42:36.356Z,-5.00
2022-12-17T18:45:03.762Z,-5.00
2022-12-17T18:47:32.605Z,-5.00
2022-12-17T18:49:59.683Z,-5.00
2022-12-17T18:52:28.394Z,-5.00
2022-12-17T18:54:55.420Z,-5.00
2022-12-17T18:57:22.642Z,-5.00
2022-12-17T18:59:49.859Z,-5.10
2022-12-17T19:02:17.180Z,-5.10
2022-12-17T19:04:47.481Z,-5.10
2022-12-17T19:07:21.895Z,-5.10
2022-12-17T19:09:50.174Z,-5.00
2022-12-17T19:12:17.218Z,-5.00
2022-12-17T19:14:44.210Z,-5.00
2022-12-17T19:17:13.996Z,-5.00
2022-12-17T19:19:41.026Z,-5.00
2022-12-17T19:22:08.622Z,-5.10
2022-12-17T19:24:35.629Z,-5.00
2022-12-17T19:27:02.700Z,-5.00
2022-12-17T19:29:29.733Z,-5.00
2022-12-17T19:31:58.443Z,-4.90
2022-12-17T19:34:25.488Z,-4.90
2022-12-17T19:36:52.557Z,-4.80
2022-12-17T19:39:20.451Z,-4.90
2022-12-17T19:41:50.486Z,-4.90
2022-12-17T19:44:18.172Z,-4.90
2022-12-17T19:46:45.445Z,-4.90
2022-12-17T19:49:14.148Z,-4.90
2022-12-17T19:51:44.383Z,-4.90
2022-12-17T19:54:15.525Z,-4.90
2022-12-17T19:56:45.127Z,-4.80
2022-12-17T19:59:13.333Z,-4.80
2022-12-17T20:01:43.655Z,-4.90
2022-12-17T20:04:16.075Z,-4.90
2022-12-17T20:06:44.348Z,-5.00
2022-12-17T20:09:12.198Z,-5.00
2022-12-17T20:11:40.112Z,-5.00
2022-12-17T20:14:11.741Z,-5.00
2022-12-17T20:16:42.657Z,-5.00
2022-12-17T20:19:14.510Z,-5.00
2022-12-17T20:21:41.775Z,-4.90
2022-12-17T20:24:10.080Z,-4.90
2022-12-17T20:26:37.202Z,-4.90
2022-12-17T20:29:05.227Z,-4.90
2022-12-17T20:31:33.188Z,-4.90
2022-12-17T20:34:06.202Z,-4.90
2022-12-17T20:36:33.833Z,-5.10
2022-12-17T20:39:01.422Z,-5.00
2022-12-17T20:41:31.284Z,-5.00
2022-12-17T20:43:58.370Z,-5.00
2022-12-17T20:46:26.549Z,-5.00
2022-12-17T20:48:53.824Z,-4.90
2022-12-17T20:51:24.737Z,-5.00
2022-12-17T20:53:53.660Z,-4.90
2022-12-17T20:56:24.212Z,-4.90
2022-12-17T20:58:56.685Z,-4.90
2022-12-17T21:01:27.514Z,-4.90
2022-12-17T21:03:56.248Z,-4.90
2022-12-17T21:06:27.752Z,-4.90
2022-12-17T21:08:55.933Z,-4.90
2022-12-17T21:11:25.599Z,-4.90
2022-12-17T21:13:53.893Z,-5.00
2022-12-17T21:16:31.728Z,-5.00
2022-12-17T21:19:00.846Z,-5.00
2022-12-17T21:21:32.881Z,-5.00
2022-12-17T21:24:01.431Z,-5.00
2022-12-17T21:26:31.775Z,-5.00
2022-12-17T21:28:59.699Z,-5.00
2022-12-17T21:31:40.848Z,-5.00
2022-12-17T21:34:11.805Z,-5.10
2022-12-17T21:36:39.434Z,-5.10
2022-12-17T21:39:09.520Z,-5.10
2022-12-17T21:41:44.048Z,-5.10
2022-12-17T21:44:14.491Z,-5.10
2022-12-17T21:46:43.009Z,-5.10
2022-12-17T21:49:10.750Z,-5.10
2022-12-17T21:51:38.250Z,-5.20
2022-12-17T21:54:08.622Z,-5.20
2022-12-17T21:56:36.678Z,-5.30
2022-12-17T21:59:03.790Z,-5.20
2022-12-17T22:01:34.246Z,-5.20
2022-12-17T22:04:03.555Z,-5.20
2022-12-17T22:06:36.369Z,-5.20
2022-12-17T22:09:19.855Z,-5.20
2022-12-17T22:12:20.602Z,-5.20
2022-12-17T22:14:47.777Z,-5.10
2022-12-17T22:17:14.829Z,-5.10
2022-12-17T22:19:41.927Z,-5.10
2022-12-17T22:22:10.040Z,-5.10
2022-12-17T22:24:37.055Z,-5.00
2022-12-17T22:27:05.125Z,-5.00
2022-12-17T22:29:55.174Z,-5.00
2022-12-17T22:32:40.650Z,-4.90
2022-12-17T22:36:25.824Z,-4.90
2022-12-17T22:40:37.924Z,-4.80
2022-12-17T22:44:31.665Z,-4.90
2022-12-17T22:44:42.957Z,-4.90
2022-12-17T22:46:18.268Z,-4.90
2022-12-17T22:48:45.657Z,-4.90
2022-12-17T22:51:14.909Z,-4.90
2022-12-17T22:53:46.552Z,-4.90
2022-12-17T22:56:24.893Z,-5.00
2022-12-17T22:59:00.899Z,-5.10
2022-12-17T23:01:28.515Z,-5.10
2022-12-17T23:03:59.449Z,-5.10
2022-12-17T23:06:26.844Z,-5.10
2022-12-17T23:08:54.741Z,-5.00
2022-12-17T23:11:26.574Z,-5.00
2022-12-17T23:13:55.023Z,-4.90
2022-12-17T23:16:23.779Z,-5.00
2022-12-17T23:18:52.131Z,-5.00
2022-12-17T23:21:25.273Z,-5.00
2022-12-17T23:23:53.700Z,-5.00
2022-12-17T23:26:24.593Z,-4.90
2022-12-17T23:28:58.361Z,-4.90
2022-12-17T23:31:27.869Z,-4.90
2022-12-17T23:33:55.377Z,-4.90
2022-12-17T23:36:24.660Z,-4.90
2022-12-17T23:38:53.039Z,-5.10
2022-12-17T23:41:22.882Z,-5.20
2022-12-17T23:43:50.698Z,-5.20
2022-12-17T23:46:18.818Z,-5.20
2022-12-17T23:48:48.361Z,-5.10
2022-12-17T23:51:17.349Z,-5.10
2022-12-17T23:53:44.784Z,-5.20
2022-12-17T23:56:16.217Z,-5.20
2022-12-17T23:58:44.306Z,-5.20
